createdAt,value
2022-10-21T00:00:30.277Z,57.66
2022-10-21T00:03:33.483Z,57.34
2022-10-21T00:06:36.661Z,58.62
2022-10-21T00:09:40.016Z,57.69
2022-10-21T00:12:43.181Z,57.60
2022-10-21T00:15:58.086Z,56.69
2022-10-21T00:19:01.292Z,56.16
2022-10-21T00:22:04.400Z,57.17
2022-10-21T00:25:08.268Z,57.15
2022-10-21T00:28:11.327Z,57.74
2022-10-21T00:31:17.360Z,57.86
2022-10-21T00:34:20.409Z,57.39
2022-10-21T00:37:23.486Z,56.78
2022-10-21T00:40:26.630Z,56.71
2022-10-21T00:43:30.396Z,56.35
2022-10-21T00:46:41.397Z,56.98
2022-10-21T00:49:50.948Z,56.23
2022-10-21T00:52:56.108Z,57.46
2022-10-21T00:56:03.025Z,56.91
2022-10-21T00:59:07.688Z,56.90
2022-10-21T01:02:12.315Z,56.92
2022-10-21T01:05:17.332Z,56.46
2022-10-21T01:08:21.482Z,56.79
2022-10-21T01:11:27.154Z,56.59
2022-10-21T01:14:43.615Z,56.17
2022-10-21T01:17:54.686Z,56.60
2022-10-21T01:21:16.913Z,57.09
2022-10-21T01:24:53.191Z,56.98
2022-10-21T01:28:08.045Z,57.38
2022-10-21T01:31:19.373Z,56.90
2022-10-21T01:34:28.330Z,57.32
2022-10-21T01:37:42.880Z,57.21
2022-10-21T01:40:56.021Z,57.56
2022-10-21T01:44:08.330Z,57.46
2022-10-21T01:47:19.102Z,56.95
2022-10-21T01:50:26.496Z,56.33
2022-10-21T01:53:32.736Z,57.51
2022-10-21T01:56:37.781Z,57.58
2022-10-21T01:59:43.944Z,57.33
2022-10-21T02:02:50.948Z,56.92
2022-10-21T02:05:54.441Z,57.74
2022-10-21T02:08:57.816Z,57.18
2022-10-21T02:12:03.268Z,57.75
2022-10-21T02:15:10.569Z,57.12
2022-10-21T02:18:22.572Z,58.27
2022-10-21T02:21:29.495Z,57.40
2022-10-21T02:24:40.124Z,56.94
2022-10-21T02:27:43.549Z,56.44
2022-10-21T02:30:52.815Z,56.94
2022-10-21T02:34:06.086Z,56.95
2022-10-21T02:37:22.887Z,57.00
2022-10-21T02:40:33.238Z,57.21
2022-10-21T02:43:39.955Z,57.72
2022-10-21T02:46:44.934Z,58.21
2022-10-21T02:49:49.608Z,58.35
2022-10-21T02:52:52.885Z,58.06
2022-10-21T02:55:56.130Z,58.92
2022-10-21T02:58:59.363Z,58.62
2022-10-21T03:02:02.634Z,57.23
2022-10-21T03:05:09.232Z,57.60
2022-10-21T03:08:12.402Z,57.51
2022-10-21T03:11:15.583Z,57.03
2022-10-21T03:14:18.818Z,57.05
2022-10-21T03:17:25.125Z,56.84
2022-10-21T03:20:30.155Z,57.24
2022-10-21T03:23:33.298Z,57.26
2022-10-21T03:26:36.538Z,56.97
2022-10-21T03:29:39.771Z,56.90
2022-10-21T03:32:42.976Z,57.68
2022-10-21T03:35:47.526Z,56.84
2022-10-21T03:38:50.737Z,57.02
2022-10-21T03:41:54.032Z,56.97
2022-10-21T03:44:57.175Z,57.29
2022-10-21T03:48:00.415Z,56.75
2022-10-21T03:51:05.221Z,57.08
2022-10-21T03:54:08.417Z,58.33
2022-10-21T03:57:11.742Z,57.29
2022-10-21T04:00:15.550Z,57.56
2022-10-21T04:03:18.776Z,57.28
2022-10-21T04:06:23.446Z,57.29
2022-10-21T04:09:26.901Z,57.30
2022-10-21T04:12:30.184Z,56.96
2022-10-21T04:15:33.321Z,57.13
2022-10-21T04:18:36.517Z,57.57
2022-10-21T04:21:41.051Z,57.57
2022-10-21T04:24:44.271Z,57.59
2022-10-21T04:27:47.461Z,57.63
2022-10-21T04:30:50.936Z,57.37
2022-10-21T04:33:54.185Z,58.03
2022-10-21T04:37:01.140Z,58.84
2022-10-21T04:40:09.140Z,57.52
2022-10-21T04:43:12.384Z,57.92
2022-10-21T04:46:17.128Z,56.99
2022-10-21T04:49:20.561Z,56.81
2022-10-21T04:52:25.203Z,57.34
2022-10-21T04:55:28.379Z,57.57
2022-10-21T04:58:31.568Z,56.87
2022-10-21T05:01:34.906Z,56.61
2022-10-21T05:04:38.162Z,56.96
2022-10-21T05:07:42.725Z,57.37
2022-10-21T05:10:45.967Z,57.63
2022-10-21T05:13:49.114Z,57.40
2022-10-21T05:16:52.317Z,57.55
2022-10-21T05:19:55.529Z,58.47
2022-10-21T05:23:00.145Z,58.79
2022-10-21T05:26:03.345Z,58.49
2022-10-21T05:29:06.577Z,57.32
2022-10-21T05:32:09.782Z,57.41
2022-10-21T05:35:13.255Z,58.73
2022-10-21T05:38:17.779Z,57.15
2022-10-21T05:41:21.085Z,56.83
2022-10-21T05:44:24.411Z,56.20
2022-10-21T05:47:27.615Z,55.88
2022-10-21T05:50:30.787Z,55.74
2022-10-21T05:53:35.608Z,56.71
2022-10-21T05:56:38.849Z,56.93
2022-10-21T05:59:42.106Z,56.85
2022-10-21T06:02:45.488Z,56.39
2022-10-21T06:05:48.706Z,55.66
2022-10-21T06:08:53.320Z,55.82
2022-10-21T06:11:57.892Z,56.40
2022-10-21T06:15:01.098Z,56.32
2022-10-21T06:18:04.390Z,55.28
2022-10-21T06:21:08.268Z,55.79
2022-10-21T06:24:12.935Z,56.68
2022-10-21T06:27:16.138Z,56.66
2022-10-21T06:30:19.389Z,56.89
2022-10-21T06:33:26.231Z,57.75
2022-10-21T06:36:30.590Z,57.76
2022-10-21T06:39:35.303Z,58.21
2022-10-21T06:42:40.387Z,57.65
2022-10-21T06:45:43.757Z,58.52
2022-10-21T06:48:46.975Z,57.60
2022-10-21T06:51:50.155Z,57.04
2022-10-21T06:54:54.730Z,55.55
2022-10-21T06:57:57.983Z,55.16
2022-10-21T07:01:01.145Z,53.77
2022-10-21T07:04:06.144Z,53.29
2022-10-21T07:07:09.363Z,52.67
2022-10-21T07:10:13.925Z,52.20
2022-10-21T07:13:17.146Z,53.00
2022-10-21T07:16:23.870Z,52.77
2022-10-21T07:19:27.449Z,53.35
2022-10-21T07:22:31.954Z,53.08
2022-10-21T07:25:37.700Z,52.74
2022-10-21T07:28:42.083Z,52.88
2022-10-21T07:31:45.771Z,51.28
2022-10-21T07:34:49.033Z,51.84
2022-10-21T07:37:52.342Z,50.72
2022-10-21T07:40:58.194Z,49.98
2022-10-21T07:44:01.837Z,49.25
2022-10-21T07:47:05.107Z,48.95
2022-10-21T07:50:09.251Z,48.57
2022-10-21T07:53:13.250Z,47.86
2022-10-21T07:56:20.906Z,47.39
2022-10-21T07:59:24.516Z,46.23
2022-10-21T08:02:31.426Z,46.06
2022-10-21T08:05:34.645Z,45.57
2022-10-21T08:08:38.993Z,45.93
2022-10-21T08:11:44.043Z,46.44
2022-10-21T08:14:47.261Z,45.45
2022-10-21T08:17:50.492Z,45.14
2022-10-21T08:20:53.987Z,44.49
2022-10-21T08:23:57.179Z,43.92
2022-10-21T08:27:01.808Z,43.67
2022-10-21T08:30:05.629Z,44.09
2022-10-21T08:33:08.816Z,45.71
2022-10-21T08:36:15.482Z,44.11
2022-10-21T08:39:18.705Z,43.82
2022-10-21T08:42:23.788Z,43.07
2022-10-21T08:45:34.755Z,43.13
2022-10-21T08:48:43.917Z,41.98
2022-10-21T08:51:55.227Z,41.89
2022-10-21T08:55:01.210Z,41.63
2022-10-21T08:58:06.108Z,43.51
2022-10-21T09:01:24.424Z,43.32
2022-10-21T09:04:42.843Z,42.27
2022-10-21T09:07:52.520Z,41.47
2022-10-21T09:11:02.615Z,40.78
2022-10-21T09:14:50.141Z,41.94
2022-10-21T09:18:12.395Z,42.64
2022-10-21T09:21:24.142Z,42.94
2022-10-21T09:24:35.126Z,41.60
2022-10-21T09:27:54.994Z,40.71
2022-10-21T09:31:03.761Z,40.42
2022-10-21T09:34:19.464Z,40.71
2022-10-21T09:37:31.750Z,40.15
2022-10-21T09:40:37.986Z,39.52
2022-10-21T09:43:41.219Z,38.65
2022-10-21T09:46:46.355Z,38.74
2022-10-21T09:50:06.813Z,39.78
2022-10-21T09:53:16.406Z,40.47
2022-10-21T09:56:22.447Z,40.78
2022-10-21T09:59:30.428Z,41.08
2022-10-21T10:02:39.217Z,41.66
2022-10-21T10:05:48.134Z,40.28
2022-10-21T10:08:51.637Z,39.83
2022-10-21T10:11:57.924Z,38.62
2022-10-21T10:15:30.827Z,38.80
2022-10-21T10:18:38.357Z,39.37
2022-10-21T10:21:43.442Z,39.56
2022-10-21T10:24:47.086Z,38.55
2022-10-21T10:27:53.445Z,39.40
2022-10-21T10:30:58.702Z,38.57
2022-10-21T10:34:05.403Z,38.43
2022-10-21T10:37:21.338Z,39.14
2022-10-21T10:40:32.839Z,38.87
2022-10-21T10:43:45.320Z,39.24
2022-10-21T10:46:57.929Z,38.77
2022-10-21T10:50:01.604Z,38.67
2022-10-21T10:53:35.026Z,38.33
2022-10-21T10:56:48.069Z,38.57
2022-10-21T10:59:59.471Z,37.79
2022-10-21T11:03:06.476Z,39.81
2022-10-21T11:06:16.930Z,38.78
2022-10-21T11:09:25.108Z,38.87
2022-10-21T11:12:30.336Z,39.45
2022-10-21T11:16:12.561Z,38.87
2022-10-21T11:19:28.258Z,38.93
2022-10-21T11:22:46.829Z,38.24
2022-10-21T11:26:08.040Z,38.69
2022-10-21T11:29:26.807Z,37.90
2022-10-21T11:32:42.488Z,38.44
2022-10-21T11:36:02.284Z,37.48
2022-10-21T11:39:59.429Z,37.95
2022-10-21T11:43:29.582Z,38.88
2022-10-21T11:46:50.059Z,38.66
2022-10-21T11:50:02.745Z,37.60
2022-10-21T11:53:35.436Z,39.23
2022-10-21T11:56:54.908Z,38.83
2022-10-21T12:00:37.797Z,39.76
2022-10-21T12:04:10.869Z,39.61
2022-10-21T12:08:04.416Z,39.47
2022-10-21T12:11:39.263Z,39.40
2022-10-21T12:14:56.673Z,38.52
2022-10-21T12:18:09.231Z,38.21
2022-10-21T12:21:40.093Z,38.58
2022-10-21T12:24:52.491Z,38.41
2022-10-21T12:28:05.799Z,38.61
2022-10-21T12:31:24.480Z,38.72
2022-10-21T12:34:34.113Z,38.76
2022-10-21T12:38:12.282Z,39.02
2022-10-21T12:41:36.536Z,38.90
2022-10-21T12:44:42.301Z,38.41
2022-10-21T12:47:47.232Z,38.47
2022-10-21T12:51:00.150Z,38.24
2022-10-21T12:54:15.610Z,38.74
2022-10-21T12:57:38.220Z,38.30
2022-10-21T13:00:58.793Z,37.73
2022-10-21T13:04:02.826Z,38.14
2022-10-21T13:07:37.638Z,37.73
2022-10-21T13:10:41.571Z,38.39
2022-10-21T13:13:50.353Z,38.28
2022-10-21T13:16:57.351Z,39.00
2022-10-21T13:20:49.328Z,38.31
2022-10-21T13:24:18.401Z,39.04
2022-10-21T13:27:29.081Z,39.06
2022-10-21T13:30:42.277Z,39.36
2022-10-21T13:33:57.614Z,39.59
2022-10-21T13:37:23.486Z,39.23
2022-10-21T13:40:38.926Z,39.16
2022-10-21T13:43:58.325Z,39.41
2022-10-21T13:47:34.842Z,39.51
2022-10-21T13:50:51.011Z,40.42
2022-10-21T13:54:04.352Z,39.94
2022-10-21T13:57:18.258Z,40.00
2022-10-21T14:00:32.425Z,40.78
2022-10-21T14:03:36.606Z,41.33
2022-10-21T14:06:59.126Z,40.92
2022-10-21T14:10:08.546Z,40.67
2022-10-21T14:13:30.326Z,40.57
2022-10-21T14:16:44.674Z,40.92
2022-10-21T14:19:54.786Z,40.52
2022-10-21T14:22:58.741Z,40.88
2022-10-21T14:26:09.247Z,40.92
2022-10-21T14:29:27.348Z,41.14
2022-10-21T14:32:33.157Z,40.99
2022-10-21T14:35:41.903Z,40.95
2022-10-21T14:38:54.026Z,41.43
2022-10-21T14:42:02.828Z,41.52
2022-10-21T14:45:09.330Z,41.28
2022-10-21T14:48:26.590Z,41.84
2022-10-21T14:51:36.642Z,41.66
2022-10-21T14:54:52.073Z,42.29
2022-10-21T14:58:08.087Z,42.31
2022-10-21T15:01:19.379Z,42.88
2022-10-21T15:04:52.408Z,43.57
2022-10-21T15:08:32.745Z,44.25
2022-10-21T15:11:41.976Z,44.18
2022-10-21T15:14:45.573Z,44.28
2022-10-21T15:17:50.505Z,44.31
2022-10-21T15:20:57.349Z,44.23
2022-10-21T15:24:04.653Z,44.13
2022-10-21T15:27:08.533Z,45.32
2022-10-21T15:30:18.906Z,45.86
2022-10-21T15:33:26.422Z,45.41
2022-10-21T15:36:29.817Z,45.10
2022-10-21T15:39:33.154Z,45.72
2022-10-21T15:42:37.097Z,45.63
2022-10-21T15:45:42.181Z,45.86
2022-10-21T15:48:46.794Z,45.65
2022-10-21T15:51:51.026Z,46.37
2022-10-21T15:54:55.373Z,46.93
2022-10-21T15:57:58.651Z,46.52
2022-10-21T16:01:01.926Z,46.86
2022-10-21T16:04:06.832Z,46.63
2022-10-21T16:07:20.907Z,46.52
2022-10-21T16:10:26.515Z,46.53
2022-10-21T16:13:29.697Z,46.10
2022-10-21T16:16:32.991Z,46.30
2022-10-21T16:19:37.720Z,46.56
2022-10-21T16:22:41.312Z,46.84
2022-10-21T16:25:48.294Z,47.54
2022-10-21T16:28:52.774Z,48.52
2022-10-21T16:31:56.107Z,48.99
2022-10-21T16:35:00.702Z,49.00
2022-10-21T16:38:04.025Z,48.98
2022-10-21T16:41:11.747Z,49.68
2022-10-21T16:44:15.416Z,49.06
2022-10-21T16:47:20.945Z,49.51
2022-10-21T16:50:31.372Z,49.83
2022-10-21T16:53:34.665Z,49.69
2022-10-21T16:56:37.912Z,50.52
2022-10-21T16:59:41.168Z,50.49
2022-10-21T17:02:47.005Z,50.43
2022-10-21T17:05:52.559Z,50.12
2022-10-21T17:08:58.097Z,50.06
2022-10-21T17:12:01.520Z,50.36
2022-10-21T17:15:05.972Z,50.29
2022-10-21T17:18:11.821Z,50.79
2022-10-21T17:21:22.562Z,51.20
2022-10-21T17:24:25.990Z,51.68
2022-10-21T17:27:29.241Z,51.74
2022-10-21T17:30:32.644Z,51.78
2022-10-21T17:33:35.885Z,51.60
2022-10-21T17:36:40.617Z,51.45
2022-10-21T17:39:44.575Z,52.61
2022-10-21T17:42:48.192Z,52.06
2022-10-21T17:45:51.702Z,51.70
2022-10-21T17:48:56.093Z,51.81
2022-10-21T17:52:00.699Z,52.43
2022-10-21T17:55:04.982Z,51.57
2022-10-21T17:58:08.096Z,52.89
2022-10-21T18:01:13.378Z,52.66
2022-10-21T18:04:16.643Z,53.03
2022-10-21T18:07:21.217Z,52.45
2022-10-21T18:10:24.490Z,52.78
2022-10-21T18:13:30.648Z,52.21
2022-10-21T18:16:34.973Z,52.13
2022-10-21T18:19:38.204Z,52.09
2022-10-21T18:22:43.129Z,51.93
2022-10-21T18:25:46.404Z,51.80
2022-10-21T18:28:50.620Z,51.67
2022-10-21T18:31:53.842Z,52.14
2022-10-21T18:35:00.152Z,52.33
2022-10-21T18:38:06.490Z,53.05
2022-10-21T18:41:19.913Z,52.33
2022-10-21T18:44:23.962Z,52.70
2022-10-21T18:47:28.178Z,53.32
2022-10-21T18:50:31.482Z,53.56
2022-10-21T18:53:42.460Z,53.28
2022-10-21T18:56:45.704Z,53.65
2022-10-21T18:59:48.890Z,53.40
2022-10-21T19:02:52.118Z,54.01
2022-10-21T19:05:55.381Z,53.85
2022-10-21T19:09:01.309Z,54.31
2022-10-21T19:12:04.962Z,54.50
2022-10-21T19:15:09.044Z,54.68
2022-10-21T19:18:13.646Z,54.81
2022-10-21T19:21:18.987Z,54.08
2022-10-21T19:24:23.570Z,54.04
2022-10-21T19:27:26.792Z,55.67
2022-10-21T19:30:32.277Z,54.43
2022-10-21T19:33:35.521Z,53.59
2022-10-21T19:36:38.714Z,54.00
2022-10-21T19:39:43.262Z,54.09
2022-10-21T19:42:46.447Z,53.58
2022-10-21T19:45:50.365Z,54.01
2022-10-21T19:48:53.644Z,54.08
2022-10-21T19:51:56.863Z,53.46
2022-10-21T19:55:01.531Z,53.54
2022-10-21T19:58:04.710Z,53.03
2022-10-21T20:01:10.326Z,52.94
2022-10-21T20:04:13.542Z,53.18
2022-10-21T20:07:16.765Z,54.24
2022-10-21T20:10:21.838Z,53.83
2022-10-21T20:13:25.113Z,53.75
2022-10-21T20:16:30.203Z,53.45
2022-10-21T20:19:33.403Z,53.42
2022-10-21T20:22:36.656Z,53.27
2022-10-21T20:25:47.807Z,53.33
2022-10-21T20:28:51.938Z,53.70
2022-10-21T20:31:55.187Z,54.47
2022-10-21T20:34:58.497Z,54.09
2022-10-21T20:38:01.654Z,54.18
2022-10-21T20:41:09.654Z,53.92
2022-10-21T20:44:16.218Z,53.99
2022-10-21T20:47:19.442Z,54.61
2022-10-21T20:50:22.851Z,54.29
2022-10-21T20:53:31.022Z,54.15
2022-10-21T20:56:38.239Z,55.28
2022-10-21T20:59:41.468Z,54.74
2022-10-21T21:02:44.687Z,54.77
2022-10-21T21:05:47.871Z,54.67
2022-10-21T21:09:08.615Z,54.90
2022-10-21T21:12:15.740Z,54.85
2022-10-21T21:15:18.919Z,55.15
2022-10-21T21:18:22.129Z,54.79
2022-10-21T21:21:27.829Z,55.27
2022-10-21T21:24:30.995Z,55.17
2022-10-21T21:27:35.660Z,55.34
2022-10-21T21:30:38.868Z,56.03
2022-10-21T21:33:45.218Z,55.65
2022-10-21T21:36:48.545Z,55.92
2022-10-21T21:39:51.858Z,56.03
2022-10-21T21:42:56.435Z,55.69
2022-10-21T21:45:59.655Z,56.00
2022-10-21T21:49:06.123Z,56.06
2022-10-21T21:52:09.634Z,56.12
2022-10-21T21:55:12.913Z,56.60
2022-10-21T21:58:17.535Z,57.53
2022-10-21T22:01:22.508Z,57.16
2022-10-21T22:04:25.738Z,56.83
2022-10-21T22:07:28.919Z,56.99
2022-10-21T22:10:32.235Z,57.12
2022-10-21T22:13:37.399Z,57.37
2022-10-21T22:16:40.682Z,56.64
2022-10-21T22:19:43.839Z,57.61
2022-10-21T22:22:47.142Z,57.52
2022-10-21T22:25:50.668Z,57.16
2022-10-21T22:28:55.297Z,57.40
2022-10-21T22:31:58.555Z,57.93
2022-10-21T22:35:01.683Z,58.06
2022-10-21T22:38:04.866Z,59.36
2022-10-21T22:41:12.202Z,60.60
2022-10-21T22:44:17.138Z,58.20
2022-10-21T22:47:23.430Z,57.84
2022-10-21T22:50:26.666Z,57.06
2022-10-21T22:53:29.863Z,56.59
2022-10-21T22:56:33.250Z,57.03
2022-10-21T22:59:38.119Z,56.64
2022-10-21T23:02:41.480Z,56.54
2022-10-21T23:05:45.369Z,56.28
2022-10-21T23:08:48.522Z,56.15
2022-10-21T23:11:51.734Z,57.19
2022-10-21T23:14:56.426Z,56.69
2022-10-21T23:17:59.631Z,56.82
2022-10-21T23:21:02.881Z,56.19
2022-10-21T23:24:07.218Z,56.22
2022-10-21T23:27:10.438Z,56.46
2022-10-21T23:30:15.292Z,56.16
2022-10-21T23:33:18.477Z,56.46
2022-10-21T23:36:21.616Z,56.40
2022-10-21T23:39:24.886Z,56.98
2022-10-21T23:42:28.147Z,56.40
2022-10-21T23:45:32.707Z,56.46
2022-10-21T23:48:35.934Z,56.81
2022-10-21T23:51:39.111Z,57.23
2022-10-21T23:54:42.417Z,58.97
2022-10-21T23:57:45.992Z,58.59
